sensor_id;sensor_type;location;lat;lon;timestamp;temperature;humidity
2174;DHT22;1093;51.424;11.764;2022-10-16T00:00:38;15.00;1.40
2174;DHT22;1093;51.424;11.764;2022-10-16T00:03:06;15.00;1.40
2174;DHT22;1093;51.424;11.764;2022-10-16T00:05:33;15.10;1.40
2174;DHT22;1093;51.424;11.764;2022-10-16T00:08:01;15.10;1.40
2174;DHT22;1093;51.424;11.764;2022-10-16T00:10:28;15.20;1.40
2174;DHT22;1093;51.424;11.764;2022-10-16T00:12:55;15.30;1.40
2174;DHT22;1093;51.424;11.764;2022-10-16T00:15:22;15.30;1.40
2174;DHT22;1093;51.424;11.764;2022-10-16T00:17:49;15.40;1.40
2174;DHT22;1093;51.424;11.764;2022-10-16T00:20:16;15.40;1.40
2174;DHT22;1093;51.424;11.764;2022-10-16T00:22:42;15.40;1.40
2174;DHT22;1093;51.424;11.764;2022-10-16T00:25:11;15.50;1.40
2174;DHT22;1093;51.424;11.764;2022-10-16T00:27:37;15.50;1.40
2174;DHT22;1093;51.424;11.764;2022-10-16T00:30:06;15.60;1.40
2174;DHT22;1093;51.424;11.764;2022-10-16T00:32:33;15.50;1.40
2174;DHT22;1093;51.424;11.764;2022-10-16T00:35:00;15.50;1.40
2174;DHT22;1093;51.424;11.764;2022-10-16T00:37:29;15.60;1.40
2174;DHT22;1093;51.424;11.764;2022-10-16T00:39:56;15.60;1.40
2174;DHT22;1093;51.424;11.764;2022-10-16T00:42:24;15.70;1.40
2174;DHT22;1093;51.424;11.764;2022-10-16T00:44:52;15.80;1.40
2174;DHT22;1093;51.424;11.764;2022-10-16T00:47:24;15.80;1.40
2174;DHT22;1093;51.424;11.764;2022-10-16T00:49:57;15.80;1.40
2174;DHT22;1093;51.424;11.764;2022-10-16T00:52:25;15.80;1.40
2174;DHT22;1093;51.424;11.764;2022-10-16T00:54:52;15.80;1.40
2174;DHT22;1093;51.424;11.764;2022-10-16T00:57:20;15.70;1.40
2174;DHT22;1093;51.424;11.764;2022-10-16T00:59:49;15.60;1.40
2174;DHT22;1093;51.424;11.764;2022-10-16T01:02:17;15.60;1.40
2174;DHT22;1093;51.424;11.764;2022-10-16T01:04:46;15.60;1.40
2174;DHT22;1093;51.424;11.764;2022-10-16T01:07:20;15.50;1.40
2174;DHT22;1093;51.424;11.764;2022-10-16T01:10:03;15.50;1.40
2174;DHT22;1093;51.424;11.764;2022-10-16T01:12:40;15.40;1.40
2174;DHT22;1093;51.424;11.764;2022-10-16T01:15:12;15.40;1.40
2174;DHT22;1093;51.424;11.764;2022-10-16T01:17:44;15.30;1.40
2174;DHT22;1093;51.424;11.764;2022-10-16T01:20:18;15.30;1.40
2174;DHT22;1093;51.424;11.764;2022-10-16T01:22:59;15.20;1.40
2174;DHT22;1093;51.424;11.764;2022-10-16T01:25:44;15.20;1.40
2174;DHT22;1093;51.424;11.764;2022-10-16T01:28:17;15.10;1.40
2174;DHT22;1093;51.424;11.764;2022-10-16T01:30:46;15.00;1.40
2174;DHT22;1093;51.424;11.764;2022-10-16T01:33:16;15.00;1.40
2174;DHT22;1093;51.424;11.764;2022-10-16T01:35:47;14.90;1.40
2174;DHT22;1093;51.424;11.764;2022-10-16T01:38:20;14.90;1.40
2174;DHT22;1093;51.424;11.764;2022-10-16T01:40:52;14.80;1.40
2174;DHT22;1093;51.424;11.764;2022-10-16T01:43:26;14.70;1.40
2174;DHT22;1093;51.424;11.764;2022-10-16T01:45:54;14.70;1.40
2174;DHT22;1093;51.424;11.764;2022-10-16T01:48:21;14.70;1.40
2174;DHT22;1093;51.424;11.764;2022-10-16T01:50:53;14.60;1.40
2174;DHT22;1093;51.424;11.764;2022-10-16T01:53:22;14.60;1.40
2174;DHT22;1093;51.424;11.764;2022-10-16T01:55:50;14.60;1.40
2174;DHT22;1093;51.424;11.764;2022-10-16T01:58:19;14.60;1.40
2174;DHT22;1093;51.424;11.764;2022-10-16T02:00:47;14.50;1.40
2174;DHT22;1093;51.424;11.764;2022-10-16T02:03:16;14.50;1.40
2174;DHT22;1093;51.424;11.764;2022-10-16T02:05:47;14.50;1.40
2174;DHT22;1093;51.424;11.764;2022-10-16T02:08:15;14.50;1.40
2174;DHT22;1093;51.424;11.764;2022-10-16T02:10:42;14.40;1.40
2174;DHT22;1093;51.424;11.764;2022-10-16T02:13:11;14.40;1.40
2174;DHT22;1093;51.424;11.764;2022-10-16T02:15:40;14.40;1.40
2174;DHT22;1093;51.424;11.764;2022-10-16T02:18:09;14.40;1.40
2174;DHT22;1093;51.424;11.764;2022-10-16T02:20:40;14.30;1.40
2174;DHT22;1093;51.424;11.764;2022-10-16T02:23:12;14.30;1.40
2174;DHT22;1093;51.424;11.764;2022-10-16T02:25:44;14.30;1.40
2174;DHT22;1093;51.424;11.764;2022-10-16T02:28:16;14.20;1.40
2174;DHT22;1093;51.424;11.764;2022-10-16T02:30:47;14.20;1.40
2174;DHT22;1093;51.424;11.764;2022-10-16T02:33:16;14.10;1.40
2174;DHT22;1093;51.424;11.764;2022-10-16T02:35:46;14.10;1.40
2174;DHT22;1093;51.424;11.764;2022-10-16T02:38:15;14.10;1.40
2174;DHT22;1093;51.424;11.764;2022-10-16T02:40:43;14.00;1.40
2174;DHT22;1093;51.424;11.764;2022-10-16T02:43:10;14.00;1.40
2174;DHT22;1093;51.424;11.764;2022-10-16T02:45:37;14.00;1.40
2174;DHT22;1093;51.424;11.764;2022-10-16T02:48:05;14.00;1.40
2174;DHT22;1093;51.424;11.764;2022-10-16T02:50:33;13.90;1.40
2174;DHT22;1093;51.424;11.764;2022-10-16T02:53:01;13.90;1.40
2174;DHT22;1093;51.424;11.764;2022-10-16T02:55:28;13.90;1.40
2174;DHT22;1093;51.424;11.764;2022-10-16T02:57:55;13.90;1.40
2174;DHT22;1093;51.424;11.764;2022-10-16T03:00:22;13.90;1.40
2174;DHT22;1093;51.424;11.764;2022-10-16T03:02:48;13.90;1.40
2174;DHT22;1093;51.424;11.764;2022-10-16T03:05:16;13.80;1.40
2174;DHT22;1093;51.424;11.764;2022-10-16T03:07:44;13.80;1.40
2174;DHT22;1093;51.424;11.764;2022-10-16T03:10:11;13.80;1.40
2174;DHT22;1093;51.424;11.764;2022-10-16T03:12:38;13.80;1.40
2174;DHT22;1093;51.424;11.764;2022-10-16T03:15:06;13.80;1.40
2174;DHT22;1093;51.424;11.764;2022-10-16T03:17:33;13.80;1.40
2174;DHT22;1093;51.424;11.764;2022-10-16T03:20:00;13.80;1.40
2174;DHT22;1093;51.424;11.764;2022-10-16T03:22:27;13.80;1.40
2174;DHT22;1093;51.424;11.764;2022-10-16T03:24:55;13.80;1.40
2174;DHT22;1093;51.424;11.764;2022-10-16T03:27:22;13.80;1.40
2174;DHT22;1093;51.424;11.764;2022-10-16T03:29:49;13.80;1.40
2174;DHT22;1093;51.424;11.764;2022-10-16T03:32:16;13.80;1.40
2174;DHT22;1093;51.424;11.764;2022-10-16T03:34:43;13.80;1.40
2174;DHT22;1093;51.424;11.764;2022-10-16T03:37:10;13.80;1.40
2174;DHT22;1093;51.424;11.764;2022-10-16T03:39:37;13.70;1.40
2174;DHT22;1093;51.424;11.764;2022-10-16T03:42:05;13.70;1.40
2174;DHT22;1093;51.424;11.764;2022-10-16T03:44:32;13.70;1.40
2174;DHT22;1093;51.424;11.764;2022-10-16T03:46:59;13.70;1.40
2174;DHT22;1093;51.424;11.764;2022-10-16T03:49:26;13.70;1.40
2174;DHT22;1093;51.424;11.764;2022-10-16T03:51:53;13.70;1.40
2174;DHT22;1093;51.424;11.764;2022-10-16T03:54:19;13.70;1.40
2174;DHT22;1093;51.424;11.764;2022-10-16T03:56:47;13.70;1.40
2174;DHT22;1093;51.424;11.764;2022-10-16T03:59:15;13.60;1.40
2174;DHT22;1093;51.424;11.764;2022-10-16T04:01:42;13.60;1.40
2174;DHT22;1093;51.424;11.764;2022-10-16T04:04:09;13.60;1.40
2174;DHT22;1093;51.424;11.764;2022-10-16T04:06:36;13.60;1.40
2174;DHT22;1093;51.424;11.764;2022-10-16T04:09:03;13.60;1.40
2174;DHT22;1093;51.424;11.764;2022-10-16T04:11:30;13.60;1.40
2174;DHT22;1093;51.424;11.764;2022-10-16T04:13:56;13.60;1.40
2174;DHT22;1093;51.424;11.764;2022-10-16T04:16:25;13.60;1.40
2174;DHT22;1093;51.424;11.764;2022-10-16T04:18:51;13.60;1.40
2174;DHT22;1093;51.424;11.764;2022-10-16T04:21:18;13.60;1.40
2174;DHT22;1093;51.424;11.764;2022-10-16T04:23:45;13.60;1.40
2174;DHT22;1093;51.424;11.764;2022-10-16T04:26:12;13.60;1.40
2174;DHT22;1093;51.424;11.764;2022-10-16T04:28:39;13.60;1.40
2174;DHT22;1093;51.424;11.764;2022-10-16T04:31:06;13.60;1.40
2174;DHT22;1093;51.424;11.764;2022-10-16T04:33:35;13.60;1.40
2174;DHT22;1093;51.424;11.764;2022-10-16T04:36:03;13.60;1.40
2174;DHT22;1093;51.424;11.764;2022-10-16T04:38:30;13.60;1.40
2174;DHT22;1093;51.424;11.764;2022-10-16T04:40:57;13.50;1.40
2174;DHT22;1093;51.424;11.764;2022-10-16T04:43:25;13.50;1.40
2174;DHT22;1093;51.424;11.764;2022-10-16T04:45:52;13.50;1.40
2174;DHT22;1093;51.424;11.764;2022-10-16T04:48:20;13.50;1.40
2174;DHT22;1093;51.424;11.764;2022-10-16T04:50:48;13.60;1.40
2174;DHT22;1093;51.424;11.764;2022-10-16T04:53:15;13.50;1.40
2174;DHT22;1093;51.424;11.764;2022-10-16T04:55:42;13.50;1.40
2174;DHT22;1093;51.424;11.764;2022-10-16T04:58:10;13.50;1.40
2174;DHT22;1093;51.424;11.764;2022-10-16T05:00:37;13.50;1.40
2174;DHT22;1093;51.424;11.764;2022-10-16T05:03:04;13.40;1.40
2174;DHT22;1093;51.424;11.764;2022-10-16T05:05:32;13.50;1.40
2174;DHT22;1093;51.424;11.764;2022-10-16T05:08:01;13.40;1.40
2174;DHT22;1093;51.424;11.764;2022-10-16T05:10:28;13.40;1.40
2174;DHT22;1093;51.424;11.764;2022-10-16T05:12:54;13.40;1.40
2174;DHT22;1093;51.424;11.764;2022-10-16T05:15:21;13.40;1.40
2174;DHT22;1093;51.424;11.764;2022-10-16T05:17:52;13.40;1.40
2174;DHT22;1093;51.424;11.764;2022-10-16T05:20:19;13.30;1.40
2174;DHT22;1093;51.424;11.764;2022-10-16T05:22:46;13.40;1.40
2174;DHT22;1093;51.424;11.764;2022-10-16T05:25:14;13.30;1.40
2174;DHT22;1093;51.424;11.764;2022-10-16T05:27:41;13.30;1.40
2174;DHT22;1093;51.424;11.764;2022-10-16T05:30:08;13.30;1.40
2174;DHT22;1093;51.424;11.764;2022-10-16T05:32:35;13.40;1.40
2174;DHT22;1093;51.424;11.764;2022-10-16T05:35:03;13.40;1.40
2174;DHT22;1093;51.424;11.764;2022-10-16T05:37:29;13.50;1.40
2174;DHT22;1093;51.424;11.764;2022-10-16T05:39:56;13.60;1.40
2174;DHT22;1093;51.424;11.764;2022-10-16T05:42:24;13.70;1.40
2174;DHT22;1093;51.424;11.764;2022-10-16T05:44:51;13.80;1.40
2174;DHT22;1093;51.424;11.764;2022-10-16T05:47:18;13.90;1.40
2174;DHT22;1093;51.424;11.764;2022-10-16T05:49:46;14.00;1.40
2174;DHT22;1093;51.424;11.764;2022-10-16T05:52:13;14.00;1.40
2174;DHT22;1093;51.424;11.764;2022-10-16T05:54:40;14.10;1.40
2174;DHT22;1093;51.424;11.764;2022-10-16T05:57:07;14.20;1.40
2174;DHT22;1093;51.424;11.764;2022-10-16T05:59:35;14.20;1.40
2174;DHT22;1093;51.424;11.764;2022-10-16T06:02:02;14.20;1.40
2174;DHT22;1093;51.424;11.764;2022-10-16T06:04:29;14.20;1.40
2174;DHT22;1093;51.424;11.764;2022-10-16T06:06:58;14.30;1.40
2174;DHT22;1093;51.424;11.764;2022-10-16T06:09:26;14.30;1.40
2174;DHT22;1093;51.424;11.764;2022-10-16T06:11:53;14.30;1.40
2174;DHT22;1093;51.424;11.764;2022-10-16T06:14:19;14.30;1.40
2174;DHT22;1093;51.424;11.764;2022-10-16T06:16:47;14.40;1.40
2174;DHT22;1093;51.424;11.764;2022-10-16T06:19:14;14.50;1.40
2174;DHT22;1093;51.424;11.764;2022-10-16T06:21:41;14.40;1.40
2174;DHT22;1093;51.424;11.764;2022-10-16T06:24:09;14.50;1.40
2174;DHT22;1093;51.424;11.764;2022-10-16T06:26:36;14.50;1.40
2174;DHT22;1093;51.424;11.764;2022-10-16T06:29:04;14.60;1.40
2174;DHT22;1093;51.424;11.764;2022-10-16T06:31:31;14.60;1.40
2174;DHT22;1093;51.424;11.764;2022-10-16T06:34:00;14.60;1.40
2174;DHT22;1093;51.424;11.764;2022-10-16T06:36:27;14.70;1.40
2174;DHT22;1093;51.424;11.764;2022-10-16T06:38:55;14.60;1.40
2174;DHT22;1093;51.424;11.764;2022-10-16T06:41:23;14.70;1.40
2174;DHT22;1093;51.424;11.764;2022-10-16T06:43:50;14.80;1.40
2174;DHT22;1093;51.424;11.764;2022-10-16T06:46:19;14.80;1.40
2174;DHT22;1093;51.424;11.764;2022-10-16T06:48:46;14.90;1.40
2174;DHT22;1093;51.424;11.764;2022-10-16T06:51:16;14.90;1.40
2174;DHT22;1093;51.424;11.764;2022-10-16T06:53:45;14.90;1.40
2174;DHT22;1093;51.424;11.764;2022-10-16T06:56:16;15.00;1.40
2174;DHT22;1093;51.424;11.764;2022-10-16T06:58:44;15.00;1.40
2174;DHT22;1093;51.424;11.764;2022-10-16T07:01:11;15.10;1.40
2174;DHT22;1093;51.424;11.764;2022-10-16T07:03:40;15.20;1.40
2174;DHT22;1093;51.424;11.764;2022-10-16T07:06:09;15.30;1.40
2174;DHT22;1093;51.424;11.764;2022-10-16T07:08:39;15.30;1.40
2174;DHT22;1093;51.424;11.764;2022-10-16T07:11:08;15.40;1.40
2174;DHT22;1093;51.424;11.764;2022-10-16T07:13:35;15.40;1.40
2174;DHT22;1093;51.424;11.764;2022-10-16T07:16:04;15.50;1.40
2174;DHT22;1093;51.424;11.764;2022-10-16T07:18:31;15.50;1.40
2174;DHT22;1093;51.424;11.764;2022-10-16T07:21:04;15.60;1.40
2174;DHT22;1093;51.424;11.764;2022-10-16T07:23:31;15.70;1.40
2174;DHT22;1093;51.424;11.764;2022-10-16T07:25:59;15.70;1.40
2174;DHT22;1093;51.424;11.764;2022-10-16T07:28:26;15.70;1.40
2174;DHT22;1093;51.424;11.764;2022-10-16T07:30:53;15.80;1.40
2174;DHT22;1093;51.424;11.764;2022-10-16T07:33:20;15.90;1.40
2174;DHT22;1093;51.424;11.764;2022-10-16T07:35:49;15.90;1.40
2174;DHT22;1093;51.424;11.764;2022-10-16T07:38:15;16.00;1.40
2174;DHT22;1093;51.424;11.764;2022-10-16T07:40:42;16.10;1.40
2174;DHT22;1093;51.424;11.764;2022-10-16T07:43:11;16.20;1.40
2174;DHT22;1093;51.424;11.764;2022-10-16T07:45:46;16.30;1.40
2174;DHT22;1093;51.424;11.764;2022-10-16T07:48:13;16.40;1.40
2174;DHT22;1093;51.424;11.764;2022-10-16T07:50:39;16.50;1.40
2174;DHT22;1093;51.424;11.764;2022-10-16T07:53:06;16.60;1.40
2174;DHT22;1093;51.424;11.764;2022-10-16T07:55:33;16.60;1.40
2174;DHT22;1093;51.424;11.764;2022-10-16T07:58:00;16.70;1.40
2174;DHT22;1093;51.424;11.764;2022-10-16T08:00:28;16.80;1.40
2174;DHT22;1093;51.424;11.764;2022-10-16T08:02:56;16.80;1.40
2174;DHT22;1093;51.424;11.764;2022-10-16T08:05:25;16.90;1.40
2174;DHT22;1093;51.424;11.764;2022-10-16T08:07:52;16.90;1.40
2174;DHT22;1093;51.424;11.764;2022-10-16T08:10:21;17.00;1.40
2174;DHT22;1093;51.424;11.764;2022-10-16T08:12:48;17.00;1.40
2174;DHT22;1093;51.424;11.764;2022-10-16T08:15:15;17.10;1.40
2174;DHT22;1093;51.424;11.764;2022-10-16T08:17:43;17.20;1.40
2174;DHT22;1093;51.424;11.764;2022-10-16T08:20:11;17.20;1.40
2174;DHT22;1093;51.424;11.764;2022-10-16T08:22:38;17.40;1.40
2174;DHT22;1093;51.424;11.764;2022-10-16T08:25:05;17.50;1.40
2174;DHT22;1093;51.424;11.764;2022-10-16T08:27:32;17.60;1.40
2174;DHT22;1093;51.424;11.764;2022-10-16T08:29:59;17.70;1.40
2174;DHT22;1093;51.424;11.764;2022-10-16T08:32:26;17.80;1.40
2174;DHT22;1093;51.424;11.764;2022-10-16T08:34:54;17.80;1.40
2174;DHT22;1093;51.424;11.764;2022-10-16T08:37:21;17.80;1.40
2174;DHT22;1093;51.424;11.764;2022-10-16T08:39:48;17.90;1.40
2174;DHT22;1093;51.424;11.764;2022-10-16T08:42:27;18.00;1.40
2174;DHT22;1093;51.424;11.764;2022-10-16T08:45:13;18.00;1.40
2174;DHT22;1093;51.424;11.764;2022-10-16T08:47:48;18.00;1.40
2174;DHT22;1093;51.424;11.764;2022-10-16T08:50:22;18.10;1.40
2174;DHT22;1093;51.424;11.764;2022-10-16T08:52:51;18.10;1.40
2174;DHT22;1093;51.424;11.764;2022-10-16T08:55:31;18.20;1.40
2174;DHT22;1093;51.424;11.764;2022-10-16T08:57:59;18.30;1.40
2174;DHT22;1093;51.424;11.764;2022-10-16T09:00:27;18.30;1.40
2174;DHT22;1093;51.424;11.764;2022-10-16T09:03:03;18.40;1.40
2174;DHT22;1093;51.424;11.764;2022-10-16T09:06:07;18.50;1.40
2174;DHT22;1093;51.424;11.764;2022-10-16T09:08:41;18.60;1.40
2174;DHT22;1093;51.424;11.764;2022-10-16T09:11:17;18.80;1.40
2174;DHT22;1093;51.424;11.764;2022-10-16T09:13:51;19.00;1.40
2174;DHT22;1093;51.424;11.764;2022-10-16T09:16:25;19.10;1.40
2174;DHT22;1093;51.424;11.764;2022-10-16T09:18:58;19.30;1.40
2174;DHT22;1093;51.424;11.764;2022-10-16T09:21:30;19.50;1.40
2174;DHT22;1093;51.424;11.764;2022-10-16T09:24:04;19.60;1.40
2174;DHT22;1093;51.424;11.764;2022-10-16T09:26:33;19.80;1.40
2174;DHT22;1093;51.424;11.764;2022-10-16T09:29:00;19.80;1.40
2174;DHT22;1093;51.424;11.764;2022-10-16T09:31:27;19.90;1.40
2174;DHT22;1093;51.424;11.764;2022-10-16T09:33:57;20.00;1.40
2174;DHT22;1093;51.424;11.764;2022-10-16T09:36:25;20.00;1.40
2174;DHT22;1093;51.424;11.764;2022-10-16T09:39:04;20.10;1.40
2174;DHT22;1093;51.424;11.764;2022-10-16T09:41:34;20.20;1.40
2174;DHT22;1093;51.424;11.764;2022-10-16T09:44:03;20.30;1.40
2174;DHT22;1093;51.424;11.764;2022-10-16T09:46:33;20.30;1.40
2174;DHT22;1093;51.424;11.764;2022-10-16T09:49:01;20.30;1.40
2174;DHT22;1093;51.424;11.764;2022-10-16T09:51:30;20.40;1.40
2174;DHT22;1093;51.424;11.764;2022-10-16T09:54:00;20.50;1.40
2174;DHT22;1093;51.424;11.764;2022-10-16T09:56:31;20.50;1.40
2174;DHT22;1093;51.424;11.764;2022-10-16T09:59:00;20.50;1.40
2174;DHT22;1093;51.424;11.764;2022-10-16T10:01:31;20.60;1.40
2174;DHT22;1093;51.424;11.764;2022-10-16T10:04:02;20.60;1.40
2174;DHT22;1093;51.424;11.764;2022-10-16T10:06:30;20.60;1.40
2174;DHT22;1093;51.424;11.764;2022-10-16T10:09:02;20.70;1.40
2174;DHT22;1093;51.424;11.764;2022-10-16T10:11:46;20.60;1.40
2174;DHT22;1093;51.424;11.764;2022-10-16T10:14:18;20.60;1.40
2174;DHT22;1093;51.424;11.764;2022-10-16T10:16:47;20.70;1.40
2174;DHT22;1093;51.424;11.764;2022-10-16T10:19:16;20.80;1.40
2174;DHT22;1093;51.424;11.764;2022-10-16T10:21:43;21.00;1.40
2174;DHT22;1093;51.424;11.764;2022-10-16T10:24:11;21.20;1.40
2174;DHT22;1093;51.424;11.764;2022-10-16T10:26:42;21.40;1.40
2174;DHT22;1093;51.424;11.764;2022-10-16T10:29:18;21.50;1.40
2174;DHT22;1093;51.424;11.764;2022-10-16T10:31:55;21.70;1.40
2174;DHT22;1093;51.424;11.764;2022-10-16T10:34:35;21.60;1.40
2174;DHT22;1093;51.424;11.764;2022-10-16T10:37:14;21.70;1.40
2174;DHT22;1093;51.424;11.764;2022-10-16T10:39:51;21.70;1.40
2174;DHT22;1093;51.424;11.764;2022-10-16T10:42:25;21.70;1.40
2174;DHT22;1093;51.424;11.764;2022-10-16T10:45:14;21.70;1.40
2174;DHT22;1093;51.424;11.764;2022-10-16T10:47:51;21.80;1.40
2174;DHT22;1093;51.424;11.764;2022-10-16T10:50:26;21.80;1.40
2174;DHT22;1093;51.424;11.764;2022-10-16T10:53:00;21.70;1.40
2174;DHT22;1093;51.424;11.764;2022-10-16T10:55:37;21.70;1.40
2174;DHT22;1093;51.424;11.764;2022-10-16T11:01:07;21.50;1.40
2174;DHT22;1093;51.424;11.764;2022-10-16T11:03:46;21.50;1.40
2174;DHT22;1093;51.424;11.764;2022-10-16T11:06:25;21.50;1.40
2174;DHT22;1093;51.424;11.764;2022-10-16T11:08:57;21.50;1.40
2174;DHT22;1093;51.424;11.764;2022-10-16T11:11:29;21.50;1.40
2174;DHT22;1093;51.424;11.764;2022-10-16T11:14:02;21.40;1.40
2174;DHT22;1093;51.424;11.764;2022-10-16T11:16:34;21.40;1.40
2174;DHT22;1093;51.424;11.764;2022-10-16T11:19:08;21.40;1.40
2174;DHT22;1093;51.424;11.764;2022-10-16T11:21:43;21.30;1.40
2174;DHT22;1093;51.424;11.764;2022-10-16T11:24:18;21.40;1.40
2174;DHT22;1093;51.424;11.764;2022-10-16T11:26:47;21.40;1.40
2174;DHT22;1093;51.424;11.764;2022-10-16T11:29:27;21.30;1.40
2174;DHT22;1093;51.424;11.764;2022-10-16T11:31:59;21.20;1.40
2174;DHT22;1093;51.424;11.764;2022-10-16T11:34:33;21.20;1.40
2174;DHT22;1093;51.424;11.764;2022-10-16T11:37:05;21.30;1.40
2174;DHT22;1093;51.424;11.764;2022-10-16T11:39:35;21.20;1.40
2174;DHT22;1093;51.424;11.764;2022-10-16T11:42:09;21.20;1.40
2174;DHT22;1093;51.424;11.764;2022-10-16T11:44:48;21.30;1.40
2174;DHT22;1093;51.424;11.764;2022-10-16T11:47:27;21.30;1.40
2174;DHT22;1093;51.424;11.764;2022-10-16T11:50:01;21.40;1.40
2174;DHT22;1093;51.424;11.764;2022-10-16T11:52:35;21.50;1.40
2174;DHT22;1093;51.424;11.764;2022-10-16T11:55:09;21.50;1.40
2174;DHT22;1093;51.424;11.764;2022-10-16T11:57:44;21.60;1.40
2174;DHT22;1093;51.424;11.764;2022-10-16T12:00:21;21.50;1.40
2174;DHT22;1093;51.424;11.764;2022-10-16T12:02:56;21.60;1.40
2174;DHT22;1093;51.424;11.764;2022-10-16T12:05:30;21.70;1.40
2174;DHT22;1093;51.424;11.764;2022-10-16T12:08:06;21.80;1.40
2174;DHT22;1093;51.424;11.764;2022-10-16T12:10:35;21.80;1.40
2174;DHT22;1093;51.424;11.764;2022-10-16T12:13:03;21.80;1.40
2174;DHT22;1093;51.424;11.764;2022-10-16T12:15:33;21.90;1.40
2174;DHT22;1093;51.424;11.764;2022-10-16T12:18:00;21.90;1.40
2174;DHT22;1093;51.424;11.764;2022-10-16T12:20:29;22.00;1.40
2174;DHT22;1093;51.424;11.764;2022-10-16T12:23:00;21.90;1.40
2174;DHT22;1093;51.424;11.764;2022-10-16T12:25:29;21.90;1.40
2174;DHT22;1093;51.424;11.764;2022-10-16T12:28:01;21.90;1.40
2174;DHT22;1093;51.424;11.764;2022-10-16T12:30:32;21.80;1.40
2174;DHT22;1093;51.424;11.764;2022-10-16T12:33:01;21.80;1.40
2174;DHT22;1093;51.424;11.764;2022-10-16T12:35:31;21.80;1.40
2174;DHT22;1093;51.424;11.764;2022-10-16T12:38:15;21.90;1.40
2174;DHT22;1093;51.424;11.764;2022-10-16T12:40:43;22.00;1.40
2174;DHT22;1093;51.424;11.764;2022-10-16T12:43:24;22.00;1.40
2174;DHT22;1093;51.424;11.764;2022-10-16T12:46:01;22.00;1.40
2174;DHT22;1093;51.424;11.764;2022-10-16T12:48:29;22.00;1.40
2174;DHT22;1093;51.424;11.764;2022-10-16T12:50:56;21.90;1.40
2174;DHT22;1093;51.424;11.764;2022-10-16T12:53:25;21.80;1.40
2174;DHT22;1093;51.424;11.764;2022-10-16T12:56:03;21.90;1.40
2174;DHT22;1093;51.424;11.764;2022-10-16T12:58:53;22.00;1.40
2174;DHT22;1093;51.424;11.764;2022-10-16T13:01:37;22.00;1.40
2174;DHT22;1093;51.424;11.764;2022-10-16T13:04:21;22.10;1.40
2174;DHT22;1093;51.424;11.764;2022-10-16T13:06:53;22.20;1.40
2174;DHT22;1093;51.424;11.764;2022-10-16T13:09:40;22.20;1.40
2174;DHT22;1093;51.424;11.764;2022-10-16T13:12:32;22.10;1.40
2174;DHT22;1093;51.424;11.764;2022-10-16T13:15:24;22.10;1.40
2174;DHT22;1093;51.424;11.764;2022-10-16T13:18:01;22.00;1.40
2174;DHT22;1093;51.424;11.764;2022-10-16T13:20:35;22.00;1.40
2174;DHT22;1093;51.424;11.764;2022-10-16T13:23:12;21.90;1.40
2174;DHT22;1093;51.424;11.764;2022-10-16T13:25:52;21.80;1.40
2174;DHT22;1093;51.424;11.764;2022-10-16T13:28:28;21.80;1.40
2174;DHT22;1093;51.424;11.764;2022-10-16T13:30:58;21.70;1.40
2174;DHT22;1093;51.424;11.764;2022-10-16T13:33:32;21.60;1.40
2174;DHT22;1093;51.424;11.764;2022-10-16T13:36:00;21.50;1.40
2174;DHT22;1093;51.424;11.764;2022-10-16T13:38:28;21.60;1.40
2174;DHT22;1093;51.424;11.764;2022-10-16T13:40:58;21.50;1.40
2174;DHT22;1093;51.424;11.764;2022-10-16T13:43:28;21.50;1.40
2174;DHT22;1093;51.424;11.764;2022-10-16T13:45:58;21.40;1.40
2174;DHT22;1093;51.424;11.764;2022-10-16T13:48:25;21.40;1.40
2174;DHT22;1093;51.424;11.764;2022-10-16T13:51:00;21.40;1.40
2174;DHT22;1093;51.424;11.764;2022-10-16T13:53:30;21.40;1.40
2174;DHT22;1093;51.424;11.764;2022-10-16T13:55:57;21.40;1.40
2174;DHT22;1093;51.424;11.764;2022-10-16T13:58:25;21.50;1.40
2174;DHT22;1093;51.424;11.764;2022-10-16T14:00:55;21.50;1.40
2174;DHT22;1093;51.424;11.764;2022-10-16T14:03:22;21.50;1.40
2174;DHT22;1093;51.424;11.764;2022-10-16T14:05:52;21.50;1.40
2174;DHT22;1093;51.424;11.764;2022-10-16T14:08:21;21.50;1.40
2174;DHT22;1093;51.424;11.764;2022-10-16T14:10:50;21.50;1.40
2174;DHT22;1093;51.424;11.764;2022-10-16T14:13:20;21.50;1.40
2174;DHT22;1093;51.424;11.764;2022-10-16T14:15:50;21.60;1.40
2174;DHT22;1093;51.424;11.764;2022-10-16T14:18:20;21.60;1.40
2174;DHT22;1093;51.424;11.764;2022-10-16T14:20:48;21.60;1.40
2174;DHT22;1093;51.424;11.764;2022-10-16T14:23:22;21.60;1.40
2174;DHT22;1093;51.424;11.764;2022-10-16T14:25:52;21.70;1.40
2174;DHT22;1093;51.424;11.764;2022-10-16T14:28:20;21.70;1.40
2174;DHT22;1093;51.424;11.764;2022-10-16T14:30:52;21.70;1.40
2174;DHT22;1093;51.424;11.764;2022-10-16T14:33:22;21.60;1.40
2174;DHT22;1093;51.424;11.764;2022-10-16T14:36:01;21.60;1.40
2174;DHT22;1093;51.424;11.764;2022-10-16T14:38:32;21.50;1.40
2174;DHT22;1093;51.424;11.764;2022-10-16T14:40:59;21.50;1.40
2174;DHT22;1093;51.424;11.764;2022-10-16T14:43:32;21.40;1.40
2174;DHT22;1093;51.424;11.764;2022-10-16T14:46:01;21.40;1.40
2174;DHT22;1093;51.424;11.764;2022-10-16T14:48:28;21.30;1.40
2174;DHT22;1093;51.424;11.764;2022-10-16T14:50:56;21.30;1.40
2174;DHT22;1093;51.424;11.764;2022-10-16T14:53:23;21.30;1.40
2174;DHT22;1093;51.424;11.764;2022-10-16T14:55:51;21.30;1.40
2174;DHT22;1093;51.424;11.764;2022-10-16T14:58:20;21.20;1.40
2174;DHT22;1093;51.424;11.764;2022-10-16T15:00:48;21.20;1.40
2174;DHT22;1093;51.424;11.764;2022-10-16T15:03:15;21.20;1.40
2174;DHT22;1093;51.424;11.764;2022-10-16T15:05:42;21.20;1.40
2174;DHT22;1093;51.424;11.764;2022-10-16T15:08:09;21.20;1.40
2174;DHT22;1093;51.424;11.764;2022-10-16T15:10:39;21.20;1.40
2174;DHT22;1093;51.424;11.764;2022-10-16T15:13:10;21.20;1.40
2174;DHT22;1093;51.424;11.764;2022-10-16T15:15:39;21.20;1.40
2174;DHT22;1093;51.424;11.764;2022-10-16T15:18:07;21.20;1.40
2174;DHT22;1093;51.424;11.764;2022-10-16T15:20:36;21.20;1.40
2174;DHT22;1093;51.424;11.764;2022-10-16T15:23:05;21.20;1.40
2174;DHT22;1093;51.424;11.764;2022-10-16T15:25:35;21.10;1.40
2174;DHT22;1093;51.424;11.764;2022-10-16T15:28:05;21.10;1.40
2174;DHT22;1093;51.424;11.764;2022-10-16T15:30:34;21.10;1.40
2174;DHT22;1093;51.424;11.764;2022-10-16T15:33:01;21.10;1.40
2174;DHT22;1093;51.424;11.764;2022-10-16T15:35:27;21.00;1.40
2174;DHT22;1093;51.424;11.764;2022-10-16T15:37:56;21.00;1.40
2174;DHT22;1093;51.424;11.764;2022-10-16T15:40:23;20.90;1.40
2174;DHT22;1093;51.424;11.764;2022-10-16T15:42:50;20.90;1.40
2174;DHT22;1093;51.424;11.764;2022-10-16T15:45:17;20.90;1.40
2174;DHT22;1093;51.424;11.764;2022-10-16T15:47:46;20.80;1.40
2174;DHT22;1093;51.424;11.764;2022-10-16T15:50:14;20.80;1.40
2174;DHT22;1093;51.424;11.764;2022-10-16T15:52:41;20.80;1.40
2174;DHT22;1093;51.424;11.764;2022-10-16T15:55:09;20.70;1.40
2174;DHT22;1093;51.424;11.764;2022-10-16T15:57:37;20.70;1.40
2174;DHT22;1093;51.424;11.764;2022-10-16T16:00:08;20.60;1.40
2174;DHT22;1093;51.424;11.764;2022-10-16T16:02:35;20.50;1.40
2174;DHT22;1093;51.424;11.764;2022-10-16T16:05:04;20.50;1.40
2174;DHT22;1093;51.424;11.764;2022-10-16T16:07:32;20.40;1.40
2174;DHT22;1093;51.424;11.764;2022-10-16T16:09:59;20.30;1.40
2174;DHT22;1093;51.424;11.764;2022-10-16T16:12:26;20.20;1.40
2174;DHT22;1093;51.424;11.764;2022-10-16T16:14:53;20.10;1.40
2174;DHT22;1093;51.424;11.764;2022-10-16T16:17:20;20.10;1.40
2174;DHT22;1093;51.424;11.764;2022-10-16T16:19:47;20.00;1.40
2174;DHT22;1093;51.424;11.764;2022-10-16T16:22:15;19.90;1.40